sensor_id;sensor_type;location;lat;lon;timestamp;P1;durP1;ratioP1;P2;durP2;ratioP2
6089;SDS011;3073;42.660;23.316;2023-03-14T00:01:14;21.93;;;12.77;;
6089;SDS011;3073;42.660;23.316;2023-03-14T00:03:44;21.93;;;12.47;;
6089;SDS011;3073;42.660;23.316;2023-03-14T00:06:11;24.97;;;13.50;;
6089;SDS011;3073;42.660;23.316;2023-03-14T00:08:38;31.00;;;15.70;;
6089;SDS011;3073;42.660;23.316;2023-03-14T00:11:06;30.20;;;14.00;;
6089;SDS011;3073;42.660;23.316;2023-03-14T00:13:33;23.73;;;12.83;;
6089;SDS011;3073;42.660;23.316;2023-03-14T00:16:03;21.70;;;11.80;;
6089;SDS011;3073;42.660;23.316;2023-03-14T00:18:31;24.53;;;12.50;;
6089;SDS011;3073;42.660;23.316;2023-03-14T00:21:00;28.40;;;12.00;;
6089;SDS011;3073;42.660;23.316;2023-03-14T00:23:29;23.80;;;11.60;;
6089;SDS011;3073;42.660;23.316;2023-03-14T00:25:58;24.50;;;12.40;;
6089;SDS011;3073;42.660;23.316;2023-03-14T00:28:26;24.40;;;11.97;;
6089;SDS011;3073;42.660;23.316;2023-03-14T00:30:53;23.27;;;12.70;;
6089;SDS011;3073;42.660;23.316;2023-03-14T00:33:20;19.97;;;10.80;;
6089;SDS011;3073;42.660;23.316;2023-03-14T00:35:52;24.63;;;11.90;;
6089;SDS011;3073;42.660;23.316;2023-03-14T00:38:21;20.40;;;10.97;;
6089;SDS011;3073;42.660;23.316;2023-03-14T00:40:49;30.07;;;13.37;;
6089;SDS011;3073;42.660;23.316;2023-03-14T00:43:18;33.53;;;12.40;;
6089;SDS011;3073;42.660;23.316;2023-03-14T00:45:47;23.60;;;11.40;;
6089;SDS011;3073;42.660;23.316;2023-03-14T00:48:13;22.97;;;11.80;;
6089;SDS011;3073;42.660;23.316;2023-03-14T00:50:40;22.03;;;11.30;;
6089;SDS011;3073;42.660;23.316;2023-03-14T00:53:07;27.10;;;11.00;;
6089;SDS011;3073;42.660;23.316;2023-03-14T00:55:38;20.80;;;10.83;;
6089;SDS011;3073;42.660;23.316;2023-03-14T00:58:06;17.03;;;10.47;;
6089;SDS011;3073;42.660;23.316;2023-03-14T01:00:32;22.80;;;11.17;;
6089;SDS011;3073;42.660;23.316;2023-03-14T01:02:59;32.63;;;12.03;;
6089;SDS011;3073;42.660;23.316;2023-03-14T01:05:27;20.43;;;12.20;;
6089;SDS011;3073;42.660;23.316;2023-03-14T01:07:54;21.50;;;11.90;;
6089;SDS011;3073;42.660;23.316;2023-03-14T01:10:21;27.13;;;12.10;;
6089;SDS011;3073;42.660;23.316;2023-03-14T01:12:55;27.00;;;13.27;;
6089;SDS011;3073;42.660;23.316;2023-03-14T01:15:22;20.57;;;11.27;;
6089;SDS011;3073;42.660;23.316;2023-03-14T01:17:49;23.00;;;12.40;;
6089;SDS011;3073;42.660;23.316;2023-03-14T01:20:16;25.87;;;12.03;;
6089;SDS011;3073;42.660;23.316;2023-03-14T01:22:43;24.90;;;12.07;;
6089;SDS011;3073;42.660;23.316;2023-03-14T01:25:12;18.20;;;10.10;;
6089;SDS011;3073;42.660;23.316;2023-03-14T01:27:40;24.20;;;11.80;;
6089;SDS011;3073;42.660;23.316;2023-03-14T01:30:09;21.67;;;12.00;;
6089;SDS011;3073;42.660;23.316;2023-03-14T01:32:37;31.80;;;11.77;;
6089;SDS011;3073;42.660;23.316;2023-03-14T01:35:05;20.00;;;12.40;;
6089;SDS011;3073;42.660;23.316;2023-03-14T01:37:32;22.23;;;12.27;;
6089;SDS011;3073;42.660;23.316;2023-03-14T01:39:59;21.33;;;11.60;;
6089;SDS011;3073;42.660;23.316;2023-03-14T01:42:26;25.97;;;13.20;;
6089;SDS011;3073;42.660;23.316;2023-03-14T01:44:53;22.70;;;12.47;;
6089;SDS011;3073;42.660;23.316;2023-03-14T01:47:23;22.00;;;11.60;;
6089;SDS011;3073;42.660;23.316;2023-03-14T01:49:51;26.47;;;12.70;;
6089;SDS011;3073;42.660;23.316;2023-03-14T01:52:23;24.97;;;11.63;;
6089;SDS011;3073;42.660;23.316;2023-03-14T01:54:54;18.67;;;11.67;;
6089;SDS011;3073;42.660;23.316;2023-03-14T01:57:27;19.57;;;11.63;;
6089;SDS011;3073;42.660;23.316;2023-03-14T01:59:58;22.47;;;10.30;;
6089;SDS011;3073;42.660;23.316;2023-03-14T02:02:36;20.60;;;10.80;;
6089;SDS011;3073;42.660;23.316;2023-03-14T02:05:06;21.87;;;10.87;;
6089;SDS011;3073;42.660;23.316;2023-03-14T02:07:33;20.87;;;10.60;;
6089;SDS011;3073;42.660;23.316;2023-03-14T02:10:05;21.90;;;11.37;;
6089;SDS011;3073;42.660;23.316;2023-03-14T02:12:32;22.43;;;11.13;;
6089;SDS011;3073;42.660;23.316;2023-03-14T02:15:01;23.60;;;12.00;;
6089;SDS011;3073;42.660;23.316;2023-03-14T02:17:28;21.57;;;11.90;;
6089;SDS011;3073;42.660;23.316;2023-03-14T02:20:01;20.30;;;11.00;;
6089;SDS011;3073;42.660;23.316;2023-03-14T02:22:37;20.23;;;11.10;;
6089;SDS011;3073;42.660;23.316;2023-03-14T02:25:08;21.40;;;11.57;;
6089;SDS011;3073;42.660;23.316;2023-03-14T02:27:42;21.10;;;12.67;;
6089;SDS011;3073;42.660;23.316;2023-03-14T02:30:11;20.63;;;11.13;;
6089;SDS011;3073;42.660;23.316;2023-03-14T02:32:40;19.83;;;11.83;;
6089;SDS011;3073;42.660;23.316;2023-03-14T02:35:10;22.03;;;11.47;;
6089;SDS011;3073;42.660;23.316;2023-03-14T02:37:41;21.33;;;11.17;;
6089;SDS011;3073;42.660;23.316;2023-03-14T02:40:12;19.27;;;10.03;;
6089;SDS011;3073;42.660;23.316;2023-03-14T02:42:39;19.27;;;10.70;;
6089;SDS011;3073;42.660;23.316;2023-03-14T02:48:05;15.17;;;10.20;;
6089;SDS011;3073;42.660;23.316;2023-03-14T02:50:35;17.87;;;10.03;;
6089;SDS011;3073;42.660;23.316;2023-03-14T02:53:01;17.83;;;9.57;;
6089;SDS011;3073;42.660;23.316;2023-03-14T02:55:28;16.60;;;10.10;;
6089;SDS011;3073;42.660;23.316;2023-03-14T02:57:55;16.97;;;9.90;;
6089;SDS011;3073;42.660;23.316;2023-03-14T03:00:22;21.90;;;9.77;;
6089;SDS011;3073;42.660;23.316;2023-03-14T03:02:51;20.43;;;10.50;;
6089;SDS011;3073;42.660;23.316;2023-03-14T03:05:17;18.00;;;10.80;;
6089;SDS011;3073;42.660;23.316;2023-03-14T03:07:44;20.57;;;11.53;;
6089;SDS011;3073;42.660;23.316;2023-03-14T03:10:11;19.40;;;11.80;;
6089;SDS011;3073;42.660;23.316;2023-03-14T03:12:38;16.80;;;10.60;;
6089;SDS011;3073;42.660;23.316;2023-03-14T03:15:05;18.77;;;10.33;;
6089;SDS011;3073;42.660;23.316;2023-03-14T03:17:33;16.90;;;11.13;;
6089;SDS011;3073;42.660;23.316;2023-03-14T03:20:01;25.63;;;11.70;;
6089;SDS011;3073;42.660;23.316;2023-03-14T03:22:30;18.13;;;10.20;;
6089;SDS011;3073;42.660;23.316;2023-03-14T03:24:57;21.57;;;10.10;;
6089;SDS011;3073;42.660;23.316;2023-03-14T03:27:23;21.07;;;10.37;;
6089;SDS011;3073;42.660;23.316;2023-03-14T03:29:50;18.70;;;10.10;;
6089;SDS011;3073;42.660;23.316;2023-03-14T03:32:17;19.10;;;10.73;;
6089;SDS011;3073;42.660;23.316;2023-03-14T03:34:44;17.73;;;10.00;;
6089;SDS011;3073;42.660;23.316;2023-03-14T03:37:12;18.97;;;9.60;;
6089;SDS011;3073;42.660;23.316;2023-03-14T03:39:39;20.07;;;10.13;;
6089;SDS011;3073;42.660;23.316;2023-03-14T03:42:05;16.97;;;9.70;;
6089;SDS011;3073;42.660;23.316;2023-03-14T03:44:32;17.73;;;10.50;;
6089;SDS011;3073;42.660;23.316;2023-03-14T03:46:59;16.30;;;10.00;;
6089;SDS011;3073;42.660;23.316;2023-03-14T03:49:28;17.57;;;9.60;;
6089;SDS011;3073;42.660;23.316;2023-03-14T03:51:55;19.27;;;8.90;;
6089;SDS011;3073;42.660;23.316;2023-03-14T03:54:23;20.40;;;9.83;;
6089;SDS011;3073;42.660;23.316;2023-03-14T03:56:50;21.37;;;10.20;;
6089;SDS011;3073;42.660;23.316;2023-03-14T03:59:17;18.87;;;10.30;;
6089;SDS011;3073;42.660;23.316;2023-03-14T04:01:44;29.77;;;11.80;;
6089;SDS011;3073;42.660;23.316;2023-03-14T04:04:11;19.20;;;10.00;;
6089;SDS011;3073;42.660;23.316;2023-03-14T04:06:38;17.40;;;10.60;;
6089;SDS011;3073;42.660;23.316;2023-03-14T04:09:05;21.43;;;11.37;;
6089;SDS011;3073;42.660;23.316;2023-03-14T04:11:33;24.43;;;11.47;;
6089;SDS011;3073;42.660;23.316;2023-03-14T04:14:01;22.30;;;11.93;;
6089;SDS011;3073;42.660;23.316;2023-03-14T04:16:27;20.03;;;11.57;;
6089;SDS011;3073;42.660;23.316;2023-03-14T04:18:56;22.87;;;12.30;;
6089;SDS011;3073;42.660;23.316;2023-03-14T04:21:23;17.53;;;11.10;;
6089;SDS011;3073;42.660;23.316;2023-03-14T04:23:50;26.73;;;11.90;;
6089;SDS011;3073;42.660;23.316;2023-03-14T04:26:17;18.80;;;11.33;;
6089;SDS011;3073;42.660;23.316;2023-03-14T04:28:45;14.63;;;9.90;;
6089;SDS011;3073;42.660;23.316;2023-03-14T04:31:14;26.53;;;12.33;;
6089;SDS011;3073;42.660;23.316;2023-03-14T04:33:43;34.03;;;12.20;;
6089;SDS011;3073;42.660;23.316;2023-03-14T04:36:11;30.27;;;11.07;;
6089;SDS011;3073;42.660;23.316;2023-03-14T04:38:38;19.90;;;11.10;;
6089;SDS011;3073;42.660;23.316;2023-03-14T04:41:05;19.50;;;11.00;;
6089;SDS011;3073;42.660;23.316;2023-03-14T04:43:32;16.27;;;10.30;;
6089;SDS011;3073;42.660;23.316;2023-03-14T04:46:01;19.60;;;10.80;;
6089;SDS011;3073;42.660;23.316;2023-03-14T04:48:28;24.87;;;11.67;;
6089;SDS011;3073;42.660;23.316;2023-03-14T04:50:55;23.40;;;12.03;;
6089;SDS011;3073;42.660;23.316;2023-03-14T04:53:22;21.33;;;10.20;;
6089;SDS011;3073;42.660;23.316;2023-03-14T04:55:49;17.97;;;10.47;;
6089;SDS011;3073;42.660;23.316;2023-03-14T04:58:16;18.83;;;11.67;;
6089;SDS011;3073;42.660;23.316;2023-03-14T05:00:42;17.20;;;10.33;;
6089;SDS011;3073;42.660;23.316;2023-03-14T05:03:11;20.70;;;10.27;;
6089;SDS011;3073;42.660;23.316;2023-03-14T05:05:38;16.50;;;10.43;;
6089;SDS011;3073;42.660;23.316;2023-03-14T05:08:05;18.00;;;10.03;;
6089;SDS011;3073;42.660;23.316;2023-03-14T05:10:33;17.80;;;9.83;;
6089;SDS011;3073;42.660;23.316;2023-03-14T05:12:59;19.13;;;10.40;;
6089;SDS011;3073;42.660;23.316;2023-03-14T05:15:26;28.90;;;11.13;;
6089;SDS011;3073;42.660;23.316;2023-03-14T05:17:53;25.30;;;11.70;;
6089;SDS011;3073;42.660;23.316;2023-03-14T05:20:22;23.93;;;12.30;;
6089;SDS011;3073;42.660;23.316;2023-03-14T05:22:49;24.27;;;11.40;;
6089;SDS011;3073;42.660;23.316;2023-03-14T05:25:16;18.47;;;10.87;;
6089;SDS011;3073;42.660;23.316;2023-03-14T05:27:43;18.97;;;10.37;;
6089;SDS011;3073;42.660;23.316;2023-03-14T05:30:10;21.80;;;10.63;;
6089;SDS011;3073;42.660;23.316;2023-03-14T05:32:37;19.60;;;11.30;;
6089;SDS011;3073;42.660;23.316;2023-03-14T05:35:04;32.30;;;16.80;;
6089;SDS011;3073;42.660;23.316;2023-03-14T05:37:35;24.43;;;13.37;;
6089;SDS011;3073;42.660;23.316;2023-03-14T05:40:04;23.70;;;11.63;;
6089;SDS011;3073;42.660;23.316;2023-03-14T05:42:33;17.93;;;10.40;;
6089;SDS011;3073;42.660;23.316;2023-03-14T05:45:00;21.70;;;11.00;;
6089;SDS011;3073;42.660;23.316;2023-03-14T05:47:27;18.37;;;11.40;;
6089;SDS011;3073;42.660;23.316;2023-03-14T05:49:54;24.50;;;13.27;;
6089;SDS011;3073;42.660;23.316;2023-03-14T05:52:21;22.37;;;11.07;;
6089;SDS011;3073;42.660;23.316;2023-03-14T05:54:49;31.40;;;14.83;;
6089;SDS011;3073;42.660;23.316;2023-03-14T05:57:16;39.80;;;18.00;;
6089;SDS011;3073;42.660;23.316;2023-03-14T05:59:43;23.83;;;13.87;;
6089;SDS011;3073;42.660;23.316;2023-03-14T06:02:10;45.83;;;22.00;;
6089;SDS011;3073;42.660;23.316;2023-03-14T06:04:37;31.60;;;14.60;;
6089;SDS011;3073;42.660;23.316;2023-03-14T06:07:04;35.17;;;16.07;;
6089;SDS011;3073;42.660;23.316;2023-03-14T06:09:31;27.07;;;14.17;;
6089;SDS011;3073;42.660;23.316;2023-03-14T06:11:59;39.40;;;15.20;;
6089;SDS011;3073;42.660;23.316;2023-03-14T06:14:26;24.13;;;14.00;;
6089;SDS011;3073;42.660;23.316;2023-03-14T06:16:53;28.73;;;12.60;;
6089;SDS011;3073;42.660;23.316;2023-03-14T06:19:20;21.57;;;11.83;;
6089;SDS011;3073;42.660;23.316;2023-03-14T06:21:47;21.83;;;11.60;;
6089;SDS011;3073;42.660;23.316;2023-03-14T06:24:14;19.07;;;11.17;;
6089;SDS011;3073;42.660;23.316;2023-03-14T06:26:41;17.67;;;10.93;;
6089;SDS011;3073;42.660;23.316;2023-03-14T06:29:10;20.30;;;12.10;;
6089;SDS011;3073;42.660;23.316;2023-03-14T06:31:38;25.00;;;11.07;;
6089;SDS011;3073;42.660;23.316;2023-03-14T06:34:05;22.20;;;11.40;;
6089;SDS011;3073;42.660;23.316;2023-03-14T06:36:32;24.17;;;12.20;;
6089;SDS011;3073;42.660;23.316;2023-03-14T06:38:59;21.80;;;12.13;;
6089;SDS011;3073;42.660;23.316;2023-03-14T06:41:26;25.63;;;12.70;;
6089;SDS011;3073;42.660;23.316;2023-03-14T06:43:53;22.40;;;11.03;;
6089;SDS011;3073;42.660;23.316;2023-03-14T06:46:21;21.37;;;13.60;;
6089;SDS011;3073;42.660;23.316;2023-03-14T06:48:48;19.53;;;12.40;;
6089;SDS011;3073;42.660;23.316;2023-03-14T06:51:14;20.80;;;11.10;;
6089;SDS011;3073;42.660;23.316;2023-03-14T06:53:41;42.33;;;12.43;;
6089;SDS011;3073;42.660;23.316;2023-03-14T06:56:08;26.90;;;11.30;;
6089;SDS011;3073;42.660;23.316;2023-03-14T06:58:35;29.90;;;10.17;;
6089;SDS011;3073;42.660;23.316;2023-03-14T07:01:02;18.90;;;10.73;;
6089;SDS011;3073;42.660;23.316;2023-03-14T07:03:31;23.83;;;12.50;;
6089;SDS011;3073;42.660;23.316;2023-03-14T07:05:58;18.43;;;11.73;;
6089;SDS011;3073;42.660;23.316;2023-03-14T07:08:24;20.57;;;10.60;;
6089;SDS011;3073;42.660;23.316;2023-03-14T07:10:51;24.57;;;10.40;;
6089;SDS011;3073;42.660;23.316;2023-03-14T07:13:18;24.37;;;11.50;;
6089;SDS011;3073;42.660;23.316;2023-03-14T07:15:45;23.60;;;9.37;;
6089;SDS011;3073;42.660;23.316;2023-03-14T07:18:12;13.23;;;9.03;;
6089;SDS011;3073;42.660;23.316;2023-03-14T07:20:40;30.47;;;8.60;;
6089;SDS011;3073;42.660;23.316;2023-03-14T07:23:07;13.50;;;7.40;;
6089;SDS011;3073;42.660;23.316;2023-03-14T07:25:34;22.67;;;10.43;;
6089;SDS011;3073;42.660;23.316;2023-03-14T07:28:01;14.60;;;8.33;;
6089;SDS011;3073;42.660;23.316;2023-03-14T07:30:27;14.70;;;7.43;;
6089;SDS011;3073;42.660;23.316;2023-03-14T07:32:54;11.17;;;7.03;;
6089;SDS011;3073;42.660;23.316;2023-03-14T07:35:21;14.10;;;7.63;;
6089;SDS011;3073;42.660;23.316;2023-03-14T07:37:49;13.67;;;7.10;;
6089;SDS011;3073;42.660;23.316;2023-03-14T07:40:16;12.73;;;8.10;;
6089;SDS011;3073;42.660;23.316;2023-03-14T07:42:43;12.73;;;7.87;;
6089;SDS011;3073;42.660;23.316;2023-03-14T07:45:10;11.70;;;8.30;;
6089;SDS011;3073;42.660;23.316;2023-03-14T07:47:37;14.50;;;8.10;;
6089;SDS011;3073;42.660;23.316;2023-03-14T07:50:05;21.97;;;10.30;;
6089;SDS011;3073;42.660;23.316;2023-03-14T07:52:33;20.00;;;9.60;;
6089;SDS011;3073;42.660;23.316;2023-03-14T07:55:01;17.53;;;8.93;;
6089;SDS011;3073;42.660;23.316;2023-03-14T07:57:28;14.13;;;7.87;;
6089;SDS011;3073;42.660;23.316;2023-03-14T07:59:55;13.17;;;7.70;;
6089;SDS011;3073;42.660;23.316;2023-03-14T08:02:22;12.90;;;7.90;;
6089;SDS011;3073;42.660;23.316;2023-03-14T08:04:49;18.87;;;9.70;;
6089;SDS011;3073;42.660;23.316;2023-03-14T08:07:16;21.00;;;11.70;;
6089;SDS011;3073;42.660;23.316;2023-03-14T08:09:43;18.60;;;10.83;;
6089;SDS011;3073;42.660;23.316;2023-03-14T08:12:11;23.90;;;11.73;;
6089;SDS011;3073;42.660;23.316;2023-03-14T08:14:38;28.80;;;14.10;;
6089;SDS011;3073;42.660;23.316;2023-03-14T08:17:05;25.33;;;14.57;;
6089;SDS011;3073;42.660;23.316;2023-03-14T08:19:33;19.57;;;12.90;;
6089;SDS011;3073;42.660;23.316;2023-03-14T08:22:00;23.67;;;13.30;;
6089;SDS011;3073;42.660;23.316;2023-03-14T08:24:28;27.33;;;13.93;;
6089;SDS011;3073;42.660;23.316;2023-03-14T08:26:54;21.90;;;12.07;;
6089;SDS011;3073;42.660;23.316;2023-03-14T08:29:22;25.90;;;15.10;;
6089;SDS011;3073;42.660;23.316;2023-03-14T08:31:49;24.37;;;13.30;;
6089;SDS011;3073;42.660;23.316;2023-03-14T08:34:16;19.97;;;12.80;;
6089;SDS011;3073;42.660;23.316;2023-03-14T08:36:44;26.33;;;12.47;;
6089;SDS011;3073;42.660;23.316;2023-03-14T08:39:12;24.70;;;12.37;;
6089;SDS011;3073;42.660;23.316;2023-03-14T08:41:39;17.50;;;11.60;;
6089;SDS011;3073;42.660;23.316;2023-03-14T08:44:07;20.80;;;11.83;;
6089;SDS011;3073;42.660;23.316;2023-03-14T08:46:36;22.00;;;13.20;;
6089;SDS011;3073;42.660;23.316;2023-03-14T08:49:02;23.03;;;13.50;;
6089;SDS011;3073;42.660;23.316;2023-03-14T08:51:29;21.63;;;12.77;;
6089;SDS011;3073;42.660;23.316;2023-03-14T08:53:56;21.67;;;12.63;;
6089;SDS011;3073;42.660;23.316;2023-03-14T08:56:23;21.90;;;13.17;;
6089;SDS011;3073;42.660;23.316;2023-03-14T08:58:51;22.70;;;12.50;;
6089;SDS011;3073;42.660;23.316;2023-03-14T09:01:18;19.77;;;13.37;;
6089;SDS011;3073;42.660;23.316;2023-03-14T09:03:47;22.90;;;12.90;;
6089;SDS011;3073;42.660;23.316;2023-03-14T09:06:14;17.63;;;11.77;;
6089;SDS011;3073;42.660;23.316;2023-03-14T09:08:43;18.97;;;11.73;;
6089;SDS011;3073;42.660;23.316;2023-03-14T09:11:10;24.50;;;12.97;;
6089;SDS011;3073;42.660;23.316;2023-03-14T09:13:38;17.90;;;12.10;;
6089;SDS011;3073;42.660;23.316;2023-03-14T09:16:05;46.30;;;19.80;;
6089;SDS011;3073;42.660;23.316;2023-03-14T09:18:33;30.43;;;15.10;;
6089;SDS011;3073;42.660;23.316;2023-03-14T09:21:01;28.90;;;12.20;;
6089;SDS011;3073;42.660;23.316;2023-03-14T09:23:28;18.40;;;11.70;;
6089;SDS011;3073;42.660;23.316;2023-03-14T09:25:55;19.70;;;10.17;;
6089;SDS011;3073;42.660;23.316;2023-03-14T09:28:22;18.40;;;10.37;;
6089;SDS011;3073;42.660;23.316;2023-03-14T09:30:49;22.73;;;10.67;;
6089;SDS011;3073;42.660;23.316;2023-03-14T09:33:16;24.40;;;10.73;;
6089;SDS011;3073;42.660;23.316;2023-03-14T09:35:42;23.77;;;11.17;;
6089;SDS011;3073;42.660;23.316;2023-03-14T09:38:11;22.63;;;11.10;;
6089;SDS011;3073;42.660;23.316;2023-03-14T09:40:38;30.03;;;10.47;;
6089;SDS011;3073;42.660;23.316;2023-03-14T09:43:05;17.00;;;10.27;;
6089;SDS011;3073;42.660;23.316;2023-03-14T09:45:32;16.30;;;10.50;;
6089;SDS011;3073;42.660;23.316;2023-03-14T09:48:01;16.33;;;9.50;;
6089;SDS011;3073;42.660;23.316;2023-03-14T09:50:31;17.80;;;10.67;;
6089;SDS011;3073;42.660;23.316;2023-03-14T09:53:05;14.83;;;8.53;;
6089;SDS011;3073;42.660;23.316;2023-03-14T09:55:38;16.80;;;8.20;;
6089;SDS011;3073;42.660;23.316;2023-03-14T09:58:09;22.10;;;9.60;;
6089;SDS011;3073;42.660;23.316;2023-03-14T10:00:38;16.63;;;9.83;;
6089;SDS011;3073;42.660;23.316;2023-03-14T10:03:14;12.43;;;8.73;;
6089;SDS011;3073;42.660;23.316;2023-03-14T10:05:50;12.70;;;8.30;;
6089;SDS011;3073;42.660;23.316;2023-03-14T10:08:17;12.60;;;10.30;;
6089;SDS011;3073;42.660;23.316;2023-03-14T10:10:45;19.13;;;9.57;;
6089;SDS011;3073;42.660;23.316;2023-03-14T10:13:14;16.80;;;8.90;;
6089;SDS011;3073;42.660;23.316;2023-03-14T10:15:46;23.67;;;10.57;;
6089;SDS011;3073;42.660;23.316;2023-03-14T10:18:15;14.20;;;10.40;;
6089;SDS011;3073;42.660;23.316;2023-03-14T10:20:42;19.10;;;9.73;;
6089;SDS011;3073;42.660;23.316;2023-03-14T10:23:24;17.80;;;9.53;;
6089;SDS011;3073;42.660;23.316;2023-03-14T10:26:05;17.10;;;9.33;;
6089;SDS011;3073;42.660;23.316;2023-03-14T10:28:34;17.13;;;9.20;;
6089;SDS011;3073;42.660;23.316;2023-03-14T10:31:05;16.67;;;9.30;;
6089;SDS011;3073;42.660;23.316;2023-03-14T10:33:33;15.37;;;9.10;;
6089;SDS011;3073;42.660;23.316;2023-03-14T10:36:02;16.37;;;9.90;;
6089;SDS011;3073;42.660;23.316;2023-03-14T10:38:30;15.20;;;8.93;;
6089;SDS011;3073;42.660;23.316;2023-03-14T10:40:59;17.90;;;8.67;;
6089;SDS011;3073;42.660;23.316;2023-03-14T10:43:31;17.50;;;10.10;;
6089;SDS011;3073;42.660;23.316;2023-03-14T10:46:01;16.30;;;9.10;;
6089;SDS011;3073;42.660;23.316;2023-03-14T10:48:33;18.03;;;9.10;;
6089;SDS011;3073;42.660;23.316;2023-03-14T10:51:03;17.93;;;9.43;;
6089;SDS011;3073;42.660;23.316;2023-03-14T10:53:33;16.10;;;9.70;;
6089;SDS011;3073;42.660;23.316;2023-03-14T10:56:06;17.33;;;9.10;;
6089;SDS011;3073;42.660;23.316;2023-03-14T10:58:35;17.93;;;9.47;;
6089;SDS011;3073;42.660;23.316;2023-03-14T11:01:11;14.90;;;8.10;;
6089;SDS011;3073;42.660;23.316;2023-03-14T11:03:52;13.40;;;7.30;;
6089;SDS011;3073;42.660;23.316;2023-03-14T11:06:25;14.57;;;7.50;;
6089;SDS011;3073;42.660;23.316;2023-03-14T11:09:02;18.43;;;8.50;;
6089;SDS011;3073;42.660;23.316;2023-03-14T11:11:34;10.20;;;6.77;;
6089;SDS011;3073;42.660;23.316;2023-03-14T11:14:06;12.33;;;6.87;;
6089;SDS011;3073;42.660;23.316;2023-03-14T11:16:43;11.20;;;6.57;;
6089;SDS011;3073;42.660;23.316;2023-03-14T11:19:38;12.23;;;6.67;;
6089;SDS011;3073;42.660;23.316;2023-03-14T11:22:16;9.63;;;5.67;;
6089;SDS011;3073;42.660;23.316;2023-03-14T11:24:55;13.10;;;6.50;;
6089;SDS011;3073;42.660;23.316;2023-03-14T11:27:35;8.30;;;6.50;;
6089;SDS011;3073;42.660;23.316;2023-03-14T11:30:15;15.03;;;6.30;;
6089;SDS011;3073;42.660;23.316;2023-03-14T11:32:45;7.43;;;4.80;;
6089;SDS011;3073;42.660;23.316;2023-03-14T11:35:18;12.37;;;4.70;;
6089;SDS011;3073;42.660;23.316;2023-03-14T11:37:51;10.03;;;5.10;;
6089;SDS011;3073;42.660;23.316;2023-03-14T11:40:22;6.83;;;3.77;;
6089;SDS011;3073;42.660;23.316;2023-03-14T11:42:54;6.60;;;4.27;;
6089;SDS011;3073;42.660;23.316;2023-03-14T11:45:29;8.67;;;4.80;;
6089;SDS011;3073;42.660;23.316;2023-03-14T11:50:55;8.33;;;4.27;;
6089;SDS011;3073;42.660;23.316;2023-03-14T11:53:39;6.97;;;4.10;;
6089;SDS011;3073;42.660;23.316;2023-03-14T11:56:16;10.73;;;4.70;;
6089;SDS011;3073;42.660;23.316;2023-03-14T11:58:50;9.20;;;4.60;;
6089;SDS011;3073;42.660;23.316;2023-03-14T12:01:25;8.43;;;4.33;;
6089;SDS011;3073;42.660;23.316;2023-03-14T12:04:00;7.70;;;3.70;;
6089;SDS011;3073;42.660;23.316;2023-03-14T12:06:40;9.27;;;3.60;;
6089;SDS011;3073;42.660;23.316;2023-03-14T12:09:14;9.07;;;3.40;;
6089;SDS011;3073;42.660;23.316;2023-03-14T12:11:43;4.70;;;3.60;;
6089;SDS011;3073;42.660;23.316;2023-03-14T12:14:20;8.30;;;4.43;;
6089;SDS011;3073;42.660;23.316;2023-03-14T12:16:54;8.27;;;3.90;;
6089;SDS011;3073;42.660;23.316;2023-03-14T12:19:28;4.93;;;3.70;;
6089;SDS011;3073;42.660;23.316;2023-03-14T12:24:53;5.90;;;4.23;;
6089;SDS011;3073;42.660;23.316;2023-03-14T12:30:36;13.70;;;3.80;;
6089;SDS011;3073;42.660;23.316;2023-03-14T12:35:59;11.67;;;3.60;;
6089;SDS011;3073;42.660;23.316;2023-03-14T12:38:39;7.43;;;3.37;;
6089;SDS011;3073;42.660;23.316;2023-03-14T12:41:19;4.10;;;3.13;;
6089;SDS011;3073;42.660;23.316;2023-03-14T12:43:49;10.37;;;3.70;;
6089;SDS011;3073;42.660;23.316;2023-03-14T12:46:21;7.70;;;3.03;;
6089;SDS011;3073;42.660;23.316;2023-03-14T12:48:53;3.30;;;2.57;;
6089;SDS011;3073;42.660;23.316;2023-03-14T12:51:27;5.23;;;3.70;;
6089;SDS011;3073;42.660;23.316;2023-03-14T12:54:14;9.03;;;3.00;;
6089;SDS011;3073;42.660;23.316;2023-03-14T12:56:59;3.90;;;2.57;;
6089;SDS011;3073;42.660;23.316;2023-03-14T12:59:34;7.43;;;2.70;;
6089;SDS011;3073;42.660;23.316;2023-03-14T13:02:12;7.17;;;3.00;;
6089;SDS011;3073;42.660;23.316;2023-03-14T13:04:49;6.57;;;3.43;;
6089;SDS011;3073;42.660;23.316;2023-03-14T13:10:25;6.13;;;3.90;;
6089;SDS011;3073;42.660;23.316;2023-03-14T13:12:55;5.30;;;3.13;;
6089;SDS011;3073;42.660;23.316;2023-03-14T13:15:28;5.60;;;3.03;;
6089;SDS011;3073;42.660;23.316;2023-03-14T13:17:59;6.00;;;3.43;;
6089;SDS011;3073;42.660;23.316;2023-03-14T13:20:36;7.63;;;2.57;;
6089;SDS011;3073;42.660;23.316;2023-03-14T13:23:19;8.90;;;2.30;;
6089;SDS011;3073;42.660;23.316;2023-03-14T13:25:47;4.83;;;2.73;;
6089;SDS011;3073;42.660;23.316;2023-03-14T13:28:14;5.63;;;3.33;;
6089;SDS011;3073;42.660;23.316;2023-03-14T13:30:42;8.83;;;2.67;;
6089;SDS011;3073;42.660;23.316;2023-03-14T13:33:12;6.97;;;2.50;;
6089;SDS011;3073;42.660;23.316;2023-03-14T13:35:43;4.83;;;3.10;;
6089;SDS011;3073;42.660;23.316;2023-03-14T13:38:18;8.20;;;2.97;;
6089;SDS011;3073;42.660;23.316;2023-03-14T13:40:49;6.63;;;3.07;;
6089;SDS011;3073;42.660;23.316;2023-03-14T13:43:18;4.30;;;2.23;;
6089;SDS011;3073;42.660;23.316;2023-03-14T13:45:50;5.33;;;2.90;;
6089;SDS011;3073;42.660;23.316;2023-03-14T13:48:19;4.90;;;3.07;;
6089;SDS011;3073;42.660;23.316;2023-03-14T13:50:55;7.27;;;2.80;;
6089;SDS011;3073;42.660;23.316;2023-03-14T13:53:24;8.23;;;2.40;;
6089;SDS011;3073;42.660;23.316;2023-03-14T13:55:51;4.90;;;2.60;;
6089;SDS011;3073;42.660;23.316;2023-03-14T13:58:20;8.17;;;2.50;;
6089;SDS011;3073;42.660;23.316;2023-03-14T14:03:39;6.00;;;3.10;;
6089;SDS011;3073;42.660;23.316;2023-03-14T14:06:16;7.93;;;2.60;;
6089;SDS011;3073;42.660;23.316;2023-03-14T14:08:49;3.90;;;1.90;;
6089;SDS011;3073;42.660;23.316;2023-03-14T14:11:19;6.23;;;2.47;;
6089;SDS011;3073;42.660;23.316;2023-03-14T14:13:58;5.53;;;2.93;;
6089;SDS011;3073;42.660;23.316;2023-03-14T14:16:26;5.70;;;1.93;;
6089;SDS011;3073;42.660;23.316;2023-03-14T14:18:56;5.83;;;3.20;;
6089;SDS011;3073;42.660;23.316;2023-03-14T14:21:26;4.30;;;2.47;;
6089;SDS011;3073;42.660;23.316;2023-03-14T14:23:53;11.30;;;2.70;;
6089;SDS011;3073;42.660;23.316;2023-03-14T14:26:20;5.20;;;2.53;;
6089;SDS011;3073;42.660;23.316;2023-03-14T14:28:47;5.17;;;2.77;;
6089;SDS011;3073;42.660;23.316;2023-03-14T14:31:25;4.70;;;2.50;;
6089;SDS011;3073;42.660;23.316;2023-03-14T14:33:56;6.17;;;2.10;;
6089;SDS011;3073;42.660;23.316;2023-03-14T14:36:27;5.97;;;2.37;;
6089;SDS011;3073;42.660;23.316;2023-03-14T14:38:57;4.00;;;2.50;;
6089;SDS011;3073;42.660;23.316;2023-03-14T14:41:27;4.70;;;2.53;;
6089;SDS011;3073;42.660;23.316;2023-03-14T14:43:57;8.93;;;2.53;;
6089;SDS011;3073;42.660;23.316;2023-03-14T14:46:27;4.37;;;2.30;;
6089;SDS011;3073;42.660;23.316;2023-03-14T14:48:57;9.80;;;2.27;;
6089;SDS011;3073;42.660;23.316;2023-03-14T14:51:33;6.93;;;2.40;;
6089;SDS011;3073;42.660;23.316;2023-03-14T14:54:12;11.70;;;2.47;;
6089;SDS011;3073;42.660;23.316;2023-03-14T14:56:45;4.60;;;1.87;;
6089;SDS011;3073;42.660;23.316;2023-03-14T14:59:20;4.63;;;1.90;;
6089;SDS011;3073;42.660;23.316;2023-03-14T15:01:49;4.43;;;2.30;;
6089;SDS011;3073;42.660;23.316;2023-03-14T15:04:18;12.37;;;2.10;;
6089;SDS011;3073;42.660;23.316;2023-03-14T15:06:49;11.70;;;3.17;;
6089;SDS011;3073;42.660;23.316;2023-03-14T15:09:17;6.57;;;2.90;;
6089;SDS011;3073;42.660;23.316;2023-03-14T15:11:45;9.27;;;2.00;;
6089;SDS011;3073;42.660;23.316;2023-03-14T15:14:12;7.00;;;2.37;;
6089;SDS011;3073;42.660;23.316;2023-03-14T15:16:40;4.93;;;1.97;;